createdAt,value
2023-02-08T00:02:02.354Z,5.38
2023-02-08T00:07:09.990Z,5.75
2023-02-08T00:12:16.239Z,4.70
2023-02-08T00:17:22.700Z,4.28
2023-02-08T00:22:30.762Z,5.30
2023-02-08T00:27:37.224Z,4.27
2023-02-08T00:32:43.490Z,4.15
2023-02-08T00:37:52.618Z,4.20
2023-02-08T00:42:58.644Z,5.47
2023-02-08T00:48:05.044Z,5.70
2023-02-08T00:53:12.536Z,4.93
2023-02-08T00:58:18.491Z,5.43
2023-02-08T01:03:25.731Z,4.38
2023-02-08T01:08:33.703Z,4.35
2023-02-08T01:13:40.875Z,4.90
2023-02-08T01:18:51.601Z,4.83
2023-02-08T01:23:59.614Z,4.85
2023-02-08T01:29:06.681Z,5.10
2023-02-08T01:34:13.761Z,4.80
2023-02-08T01:39:24.082Z,4.97
2023-02-08T01:45:23.630Z,6.80
2023-02-08T01:50:36.776Z,6.88
2023-02-08T01:55:49.905Z,6.88
2023-02-08T02:00:56.493Z,5.60
2023-02-08T02:06:10.070Z,6.03
2023-02-08T02:11:20.107Z,7.03
2023-02-08T02:16:26.314Z,4.40
2023-02-08T02:21:47.682Z,6.93
2023-02-08T02:27:33.248Z,6.28
2023-02-08T02:33:18.597Z,7.13
2023-02-08T02:38:41.266Z,6.85
2023-02-08T02:43:53.693Z,6.32
2023-02-08T02:49:07.584Z,6.32
2023-02-08T02:54:20.273Z,6.55
2023-02-08T02:59:28.780Z,6.97
2023-02-08T03:04:54.707Z,5.95
2023-02-08T03:10:14.793Z,6.93
2023-02-08T03:15:32.088Z,6.93
2023-02-08T03:20:44.640Z,5.93
2023-02-08T03:25:55.701Z,6.80
2023-02-08T03:31:12.403Z,5.50
2023-02-08T03:36:28.883Z,5.90
2023-02-08T03:41:40.747Z,6.88
2023-02-08T03:46:53.894Z,5.40
2023-02-08T03:52:06.890Z,7.00
2023-02-08T03:57:19.461Z,7.38
2023-02-08T04:02:30.225Z,8.18
2023-02-08T04:07:38.320Z,12.82
2023-02-08T04:12:44.561Z,11.70
2023-02-08T04:17:50.606Z,10.80
2023-02-08T04:22:58.570Z,11.57
2023-02-08T04:33:13.354Z,10.18
2023-02-08T04:38:21.212Z,10.35
2023-02-08T04:43:27.402Z,10.18
2023-02-08T04:48:33.813Z,7.45
2023-02-08T04:53:41.378Z,8.43
2023-02-08T04:58:48.775Z,8.50
2023-02-08T05:03:54.850Z,6.93
2023-02-08T05:09:02.385Z,8.07
2023-02-08T05:14:08.696Z,9.07
2023-02-08T05:19:14.803Z,9.35
2023-02-08T05:24:22.324Z,9.60
2023-02-08T05:29:28.457Z,10.50
2023-02-08T05:34:36.266Z,9.75
2023-02-08T05:39:44.260Z,7.65
2023-02-08T05:44:50.689Z,7.93
2023-02-08T05:49:56.875Z,8.15
2023-02-08T05:55:06.439Z,8.10
2023-02-08T06:00:14.522Z,7.80
2023-02-08T06:05:23.692Z,10.90
2023-02-08T06:10:31.616Z,8.05
2023-02-08T06:15:37.907Z,8.27
2023-02-08T06:20:44.364Z,9.00
2023-02-08T06:25:53.953Z,8.13
2023-02-08T06:31:00.495Z,7.53
2023-02-08T06:36:07.511Z,8.52
2023-02-08T06:41:15.220Z,8.27
2023-02-08T06:46:23.369Z,7.43
2023-02-08T06:51:29.720Z,7.88
2023-02-08T06:56:37.160Z,7.68
2023-02-08T07:01:43.475Z,7.45
2023-02-08T07:06:50.904Z,8.15
2023-02-08T07:11:58.478Z,8.75
2023-02-08T07:17:05.130Z,9.55
2023-02-08T07:22:11.670Z,9.85
2023-02-08T07:27:19.634Z,12.45
2023-02-08T07:32:25.974Z,11.33
2023-02-08T07:37:33.475Z,11.65
2023-02-08T07:42:40.986Z,13.05
2023-02-08T07:48:07.527Z,12.80
2023-02-08T07:53:13.870Z,12.73
2023-02-08T07:58:21.531Z,13.52
2023-02-08T08:03:29.192Z,13.18
2023-02-08T08:08:35.660Z,15.93
2023-02-08T08:13:43.497Z,21.17
2023-02-08T08:18:51.122Z,20.17
2023-02-08T08:23:57.315Z,23.92
2023-02-08T08:29:06.745Z,20.08
2023-02-08T08:34:13.077Z,20.73
2023-02-08T08:39:19.711Z,20.27
2023-02-08T08:44:27.447Z,17.27
2023-02-08T08:49:33.904Z,16.98
2023-02-08T08:54:40.497Z,18.95
2023-02-08T08:59:48.320Z,22.52
2023-02-08T09:04:54.653Z,23.50
2023-02-08T09:10:00.751Z,25.02
2023-02-08T09:15:09.923Z,21.10
2023-02-08T09:20:16.280Z,18.23
2023-02-08T09:25:22.552Z,15.88
2023-02-08T09:30:30.482Z,18.17
2023-02-08T09:35:36.874Z,14.13
2023-02-08T09:40:57.120Z,15.48
2023-02-08T09:46:10.000Z,15.65
2023-02-08T09:51:29.618Z,14.93
2023-02-08T09:56:40.735Z,17.38
2023-02-08T10:01:52.249Z,16.00
2023-02-08T10:06:58.625Z,15.43
2023-02-08T10:12:16.967Z,14.52
2023-02-08T10:17:53.357Z,11.10
2023-02-08T10:23:13.828Z,14.77
2023-02-08T10:28:49.652Z,13.25
2023-02-08T10:34:08.128Z,15.27
2023-02-08T10:39:20.175Z,13.85
2023-02-08T10:44:38.029Z,15.55
2023-02-08T10:49:56.858Z,15.00
2023-02-08T10:55:03.595Z,15.18
2023-02-08T11:00:19.607Z,16.45
2023-02-08T11:05:37.727Z,15.70
2023-02-08T11:10:48.410Z,15.13
2023-02-08T11:15:57.971Z,15.15
2023-02-08T11:21:11.486Z,14.25
2023-02-08T11:26:22.585Z,15.40
2023-02-08T11:31:29.031Z,14.90
2023-02-08T11:36:38.993Z,15.32
2023-02-08T11:41:47.655Z,13.48
2023-02-08T11:46:55.830Z,14.93
2023-02-08T11:52:04.006Z,13.70
2023-02-08T11:57:20.852Z,13.90
2023-02-08T12:02:38.833Z,15.07
2023-02-08T12:08:12.889Z,14.07
2023-02-08T12:14:03.436Z,14.27
2023-02-08T12:20:01.220Z,15.38
2023-02-08T12:25:30.227Z,12.32
2023-02-08T12:30:42.034Z,8.10
2023-02-08T12:36:25.365Z,7.90
2023-02-08T12:41:39.692Z,6.32
2023-02-08T12:47:08.101Z,5.90
2023-02-08T12:52:31.813Z,6.30
2023-02-08T12:57:43.459Z,5.47
2023-02-08T13:03:00.554Z,5.07
2023-02-08T13:08:28.294Z,4.85
2023-02-08T13:13:40.559Z,4.20
2023-02-08T13:18:54.637Z,4.53
2023-02-08T13:24:02.025Z,4.82
2023-02-08T13:29:17.730Z,5.45
2023-02-08T13:34:34.356Z,3.90
2023-02-08T13:39:46.578Z,4.80
2023-02-08T13:44:57.940Z,3.22
2023-02-08T13:50:10.069Z,3.45
2023-02-08T13:55:46.120Z,2.90
2023-02-08T14:01:20.721Z,3.20
2023-02-08T14:06:31.081Z,3.08
2023-02-08T14:11:49.700Z,2.95
2023-02-08T14:17:21.807Z,2.13
2023-02-08T14:22:38.014Z,2.42
2023-02-08T14:27:53.017Z,1.80
2023-02-08T14:33:20.050Z,1.92
2023-02-08T14:39:25.146Z,3.00
2023-02-08T14:45:03.897Z,2.50
2023-02-08T14:50:20.713Z,3.78
2023-02-08T14:55:32.147Z,5.68
2023-02-08T15:00:40.632Z,3.90
2023-02-08T15:06:26.219Z,2.92
2023-02-08T15:11:36.635Z,3.50
2023-02-08T15:16:45.285Z,3.45
2023-02-08T15:21:53.318Z,2.88
2023-02-08T15:26:59.955Z,3.20
2023-02-08T15:32:13.815Z,3.95
2023-02-08T15:37:22.322Z,4.30
2023-02-08T15:42:31.844Z,5.50
2023-02-08T15:47:40.289Z,8.30
2023-02-08T15:52:49.744Z,8.60
2023-02-08T15:58:03.166Z,12.55
2023-02-08T16:03:18.218Z,18.63
2023-02-08T16:08:29.167Z,16.33
2023-02-08T16:13:40.654Z,22.10
2023-02-08T16:18:50.435Z,19.25
2023-02-08T16:24:00.274Z,25.08
2023-02-08T16:29:09.653Z,26.45
2023-02-08T16:34:21.471Z,31.40
2023-02-08T16:39:58.464Z,39.60
2023-02-08T16:45:22.947Z,40.65
2023-02-08T16:50:30.800Z,47.30
2023-02-08T16:55:39.828Z,58.22
2023-02-08T17:00:47.159Z,49.05
2023-02-08T17:05:55.101Z,52.90
2023-02-08T17:11:03.732Z,48.77
2023-02-08T17:16:16.663Z,49.28
2023-02-08T17:21:24.180Z,50.95
2023-02-08T17:26:42.623Z,43.80
2023-02-08T17:31:51.913Z,44.22
2023-02-08T17:36:59.357Z,40.35
2023-02-08T17:42:12.650Z,44.05
2023-02-08T17:47:21.071Z,37.00
2023-02-08T17:52:29.482Z,51.30
2023-02-08T17:57:41.686Z,44.40
2023-02-08T18:02:52.423Z,36.60
2023-02-08T18:08:00.194Z,42.08
2023-02-08T18:13:11.763Z,38.08
2023-02-08T18:18:21.063Z,40.63
2023-02-08T18:23:29.641Z,35.72
2023-02-08T18:28:39.529Z,30.53
2023-02-08T18:33:48.224Z,37.97
2023-02-08T18:39:00.994Z,31.70
2023-02-08T18:44:13.412Z,29.60
2023-02-08T18:49:22.517Z,28.40
2023-02-08T18:54:31.917Z,26.48
2023-02-08T18:59:42.833Z,28.73
2023-02-08T19:04:52.005Z,33.15
2023-02-08T19:10:08.401Z,34.45
2023-02-08T19:15:20.796Z,35.33
2023-02-08T19:20:32.600Z,37.38
2023-02-08T19:25:43.260Z,45.83
2023-02-08T19:30:54.337Z,39.47
2023-02-08T19:36:11.803Z,56.67
2023-02-08T19:41:24.396Z,46.85
2023-02-08T19:46:36.613Z,42.83
2023-02-08T19:51:44.810Z,37.75
2023-02-08T19:56:55.555Z,56.33
2023-02-08T20:02:07.836Z,45.80
2023-02-08T20:07:16.922Z,48.03
2023-02-08T20:12:26.409Z,36.63
2023-02-08T20:22:45.926Z,47.45
2023-02-08T20:28:01.119Z,65.97
2023-02-08T20:33:11.205Z,59.10
2023-02-08T20:38:23.068Z,70.32
2023-02-08T20:43:31.222Z,55.40
2023-02-08T20:48:41.546Z,38.58
2023-02-08T20:53:54.244Z,39.53
2023-02-08T20:59:06.971Z,41.50
2023-02-08T21:04:20.605Z,37.97
2023-02-08T21:09:29.106Z,56.80
2023-02-08T21:14:36.741Z,33.80
2023-02-08T21:19:44.798Z,43.90
2023-02-08T21:24:52.270Z,55.20
2023-02-08T21:29:59.680Z,54.37
2023-02-08T21:35:08.612Z,60.88
2023-02-08T21:40:15.424Z,55.40
2023-02-08T21:45:22.098Z,53.72
2023-02-08T21:50:48.231Z,52.72
2023-02-08T21:55:54.700Z,50.58
2023-02-08T22:01:01.073Z,50.70
2023-02-08T22:06:27.199Z,48.80
2023-02-08T22:11:33.573Z,57.65
2023-02-08T22:16:40.434Z,49.45
2023-02-08T22:21:47.999Z,55.85
2023-02-08T22:26:54.374Z,62.00
2023-02-08T22:32:01.381Z,52.15
2023-02-08T22:37:09.665Z,57.58
2023-02-08T22:42:15.834Z,49.15
2023-02-08T22:47:22.363Z,54.08
2023-02-08T22:52:30.648Z,53.83
2023-02-08T22:57:38.025Z,49.33
2023-02-08T23:02:44.227Z,48.90
2023-02-08T23:07:52.189Z,41.10
2023-02-08T23:12:58.407Z,41.50
2023-02-08T23:18:04.855Z,49.13
2023-02-08T23:23:12.663Z,47.42
2023-02-08T23:28:18.866Z,37.07
2023-02-08T23:33:24.954Z,42.65
2023-02-08T23:38:32.876Z,39.10
2023-02-08T23:43:39.590Z,32.20
2023-02-08T23:48:47.901Z,38.53
2023-02-08T23:53:56.145Z,37.78
2023-02-08T23:59:02.669Z,41.00
